sensor_id;sensor_type;location;lat;lon;timestamp;P1;durP1;ratioP1;P2;durP2;ratioP2
26407;SDS011;14583;43.604;1.364;2023-02-01T00:00:20;19.20;;;13.20;;
26407;SDS011;14583;43.604;1.364;2023-02-01T00:02:46;16.13;;;11.15;;
26407;SDS011;14583;43.604;1.364;2023-02-01T00:05:12;15.65;;;10.50;;
26407;SDS011;14583;43.604;1.364;2023-02-01T00:07:38;14.52;;;10.00;;
26407;SDS011;14583;43.604;1.364;2023-02-01T00:10:04;13.20;;;9.13;;
26407;SDS011;14583;43.604;1.364;2023-02-01T00:12:31;15.88;;;9.70;;
26407;SDS011;14583;43.604;1.364;2023-02-01T00:14:57;14.77;;;9.13;;
26407;SDS011;14583;43.604;1.364;2023-02-01T00:17:23;13.95;;;9.40;;
26407;SDS011;14583;43.604;1.364;2023-02-01T00:19:49;13.93;;;9.48;;
26407;SDS011;14583;43.604;1.364;2023-02-01T00:22:15;13.55;;;9.00;;
26407;SDS011;14583;43.604;1.364;2023-02-01T00:24:40;14.55;;;9.75;;
26407;SDS011;14583;43.604;1.364;2023-02-01T00:27:06;17.33;;;10.95;;
26407;SDS011;14583;43.604;1.364;2023-02-01T00:29:32;13.73;;;9.40;;
26407;SDS011;14583;43.604;1.364;2023-02-01T00:31:58;15.60;;;9.73;;
26407;SDS011;14583;43.604;1.364;2023-02-01T00:34:23;11.63;;;8.57;;
26407;SDS011;14583;43.604;1.364;2023-02-01T00:36:49;15.75;;;9.05;;
26407;SDS011;14583;43.604;1.364;2023-02-01T00:39:15;12.57;;;8.93;;
26407;SDS011;14583;43.604;1.364;2023-02-01T00:41:41;16.85;;;11.73;;
26407;SDS011;14583;43.604;1.364;2023-02-01T00:44:07;24.67;;;15.98;;
26407;SDS011;14583;43.604;1.364;2023-02-01T00:46:33;24.80;;;16.83;;
26407;SDS011;14583;43.604;1.364;2023-02-01T00:48:58;27.98;;;17.40;;
26407;SDS011;14583;43.604;1.364;2023-02-01T00:51:26;25.58;;;16.73;;
26407;SDS011;14583;43.604;1.364;2023-02-01T00:53:53;25.05;;;15.57;;
26407;SDS011;14583;43.604;1.364;2023-02-01T00:56:19;21.27;;;14.13;;
26407;SDS011;14583;43.604;1.364;2023-02-01T00:58:45;14.38;;;9.45;;
26407;SDS011;14583;43.604;1.364;2023-02-01T01:01:32;12.30;;;8.23;;
26407;SDS011;14583;43.604;1.364;2023-02-01T01:03:58;10.93;;;6.22;;
26407;SDS011;14583;43.604;1.364;2023-02-01T01:06:25;9.73;;;5.95;;
26407;SDS011;14583;43.604;1.364;2023-02-01T01:08:52;7.78;;;5.47;;
26407;SDS011;14583;43.604;1.364;2023-02-01T01:11:20;7.32;;;5.00;;
26407;SDS011;14583;43.604;1.364;2023-02-01T01:13:48;7.22;;;4.95;;
26407;SDS011;14583;43.604;1.364;2023-02-01T01:16:16;6.78;;;5.00;;
26407;SDS011;14583;43.604;1.364;2023-02-01T01:18:42;6.43;;;4.60;;
26407;SDS011;14583;43.604;1.364;2023-02-01T01:21:08;5.85;;;4.70;;
26407;SDS011;14583;43.604;1.364;2023-02-01T01:23:36;11.20;;;6.80;;
26407;SDS011;14583;43.604;1.364;2023-02-01T01:26:04;17.67;;;10.93;;
26407;SDS011;14583;43.604;1.364;2023-02-01T01:28:37;22.48;;;14.75;;
26407;SDS011;14583;43.604;1.364;2023-02-01T01:31:03;21.45;;;15.63;;
26407;SDS011;14583;43.604;1.364;2023-02-01T01:33:28;25.13;;;15.00;;
26407;SDS011;14583;43.604;1.364;2023-02-01T01:35:54;24.10;;;15.32;;
26407;SDS011;14583;43.604;1.364;2023-02-01T01:38:20;23.65;;;15.48;;
26407;SDS011;14583;43.604;1.364;2023-02-01T01:40:46;24.23;;;15.27;;
26407;SDS011;14583;43.604;1.364;2023-02-01T01:43:15;21.45;;;15.07;;
26407;SDS011;14583;43.604;1.364;2023-02-01T01:45:44;27.40;;;15.32;;
26407;SDS011;14583;43.604;1.364;2023-02-01T01:50:42;25.65;;;15.25;;
26407;SDS011;14583;43.604;1.364;2023-02-01T01:53:23;21.67;;;14.00;;
26407;SDS011;14583;43.604;1.364;2023-02-01T01:55:53;24.77;;;15.05;;
26407;SDS011;14583;43.604;1.364;2023-02-01T01:58:21;21.23;;;13.55;;
26407;SDS011;14583;43.604;1.364;2023-02-01T02:00:50;20.15;;;12.88;;
26407;SDS011;14583;43.604;1.364;2023-02-01T02:05:47;18.40;;;12.05;;
26407;SDS011;14583;43.604;1.364;2023-02-01T02:08:15;17.80;;;11.77;;
26407;SDS011;14583;43.604;1.364;2023-02-01T02:10:49;16.98;;;11.73;;
26407;SDS011;14583;43.604;1.364;2023-02-01T02:13:35;17.52;;;12.32;;
26407;SDS011;14583;43.604;1.364;2023-02-01T02:38:13;8.63;;;5.03;;
26407;SDS011;14583;43.604;1.364;2023-02-01T02:43:23;6.97;;;4.75;;
26407;SDS011;14583;43.604;1.364;2023-02-01T02:46:21;12.80;;;8.85;;
26407;SDS011;14583;43.604;1.364;2023-02-01T02:49:20;14.02;;;9.15;;
26407;SDS011;14583;43.604;1.364;2023-02-01T02:52:12;13.25;;;9.32;;
26407;SDS011;14583;43.604;1.364;2023-02-01T02:54:59;11.60;;;7.43;;
26407;SDS011;14583;43.604;1.364;2023-02-01T02:57:36;11.43;;;6.65;;
26407;SDS011;14583;43.604;1.364;2023-02-01T03:00:24;7.18;;;5.13;;
26407;SDS011;14583;43.604;1.364;2023-02-01T03:03:11;8.43;;;5.07;;
26407;SDS011;14583;43.604;1.364;2023-02-01T03:05:55;8.98;;;5.03;;
26407;SDS011;14583;43.604;1.364;2023-02-01T03:10:56;7.15;;;4.38;;
26407;SDS011;14583;43.604;1.364;2023-02-01T03:16:42;7.00;;;4.25;;
26407;SDS011;14583;43.604;1.364;2023-02-01T03:19:21;7.78;;;4.38;;
26407;SDS011;14583;43.604;1.364;2023-02-01T03:21:57;7.53;;;4.43;;
26407;SDS011;14583;43.604;1.364;2023-02-01T03:32:48;6.05;;;4.10;;
26407;SDS011;14583;43.604;1.364;2023-02-01T03:35:47;6.55;;;4.55;;
26407;SDS011;14583;43.604;1.364;2023-02-01T03:40:41;4.72;;;3.45;;
26407;SDS011;14583;43.604;1.364;2023-02-01T03:43:09;6.40;;;3.65;;
26407;SDS011;14583;43.604;1.364;2023-02-01T03:45:41;5.03;;;3.42;;
26407;SDS011;14583;43.604;1.364;2023-02-01T03:48:10;4.47;;;3.40;;
26407;SDS011;14583;43.604;1.364;2023-02-01T03:50:40;5.88;;;3.35;;
26407;SDS011;14583;43.604;1.364;2023-02-01T03:53:14;6.32;;;3.90;;
26407;SDS011;14583;43.604;1.364;2023-02-01T03:55:44;6.03;;;3.30;;
26407;SDS011;14583;43.604;1.364;2023-02-01T03:58:16;4.55;;;3.38;;
26407;SDS011;14583;43.604;1.364;2023-02-01T04:00:52;3.63;;;2.78;;
26407;SDS011;14583;43.604;1.364;2023-02-01T04:03:19;6.05;;;3.72;;
26407;SDS011;14583;43.604;1.364;2023-02-01T04:05:47;4.55;;;3.20;;
26407;SDS011;14583;43.604;1.364;2023-02-01T04:08:13;4.80;;;3.50;;
26407;SDS011;14583;43.604;1.364;2023-02-01T04:10:39;4.03;;;3.10;;
26407;SDS011;14583;43.604;1.364;2023-02-01T04:13:04;4.63;;;2.92;;
26407;SDS011;14583;43.604;1.364;2023-02-01T04:15:30;3.83;;;3.05;;
26407;SDS011;14583;43.604;1.364;2023-02-01T04:17:56;5.72;;;3.70;;
26407;SDS011;14583;43.604;1.364;2023-02-01T04:20:22;7.57;;;3.58;;
26407;SDS011;14583;43.604;1.364;2023-02-01T04:22:47;4.47;;;2.92;;
26407;SDS011;14583;43.604;1.364;2023-02-01T04:25:13;5.32;;;3.10;;
26407;SDS011;14583;43.604;1.364;2023-02-01T04:27:39;5.80;;;3.30;;
26407;SDS011;14583;43.604;1.364;2023-02-01T04:30:05;5.35;;;3.28;;
26407;SDS011;14583;43.604;1.364;2023-02-01T04:32:34;5.93;;;3.47;;
26407;SDS011;14583;43.604;1.364;2023-02-01T04:35:03;6.43;;;3.60;;
26407;SDS011;14583;43.604;1.364;2023-02-01T04:37:30;7.03;;;3.78;;
26407;SDS011;14583;43.604;1.364;2023-02-01T04:39:55;5.95;;;3.70;;
26407;SDS011;14583;43.604;1.364;2023-02-01T04:42:21;4.97;;;3.10;;
26407;SDS011;14583;43.604;1.364;2023-02-01T04:44:47;6.60;;;3.88;;
26407;SDS011;14583;43.604;1.364;2023-02-01T04:47:12;5.57;;;3.28;;
26407;SDS011;14583;43.604;1.364;2023-02-01T04:49:39;5.65;;;3.60;;
26407;SDS011;14583;43.604;1.364;2023-02-01T04:52:05;4.78;;;3.10;;
26407;SDS011;14583;43.604;1.364;2023-02-01T04:54:31;5.10;;;3.60;;
26407;SDS011;14583;43.604;1.364;2023-02-01T04:56:56;4.88;;;3.33;;
26407;SDS011;14583;43.604;1.364;2023-02-01T04:59:22;4.45;;;3.08;;
26407;SDS011;14583;43.604;1.364;2023-02-01T05:01:47;5.13;;;3.22;;
26407;SDS011;14583;43.604;1.364;2023-02-01T05:04:13;8.35;;;3.75;;
26407;SDS011;14583;43.604;1.364;2023-02-01T05:06:39;6.35;;;3.50;;
26407;SDS011;14583;43.604;1.364;2023-02-01T05:09:04;5.10;;;3.28;;
26407;SDS011;14583;43.604;1.364;2023-02-01T05:11:30;5.80;;;3.78;;
26407;SDS011;14583;43.604;1.364;2023-02-01T05:14:14;5.43;;;3.90;;
26407;SDS011;14583;43.604;1.364;2023-02-01T05:16:40;8.10;;;4.40;;
26407;SDS011;14583;43.604;1.364;2023-02-01T05:19:06;9.68;;;4.50;;
26407;SDS011;14583;43.604;1.364;2023-02-01T05:21:32;6.43;;;4.47;;
26407;SDS011;14583;43.604;1.364;2023-02-01T05:23:57;8.05;;;4.07;;
26407;SDS011;14583;43.604;1.364;2023-02-01T05:26:44;6.57;;;4.18;;
26407;SDS011;14583;43.604;1.364;2023-02-01T05:29:10;6.70;;;4.03;;
26407;SDS011;14583;43.604;1.364;2023-02-01T05:31:39;4.78;;;3.92;;
26407;SDS011;14583;43.604;1.364;2023-02-01T05:34:08;7.15;;;3.70;;
26407;SDS011;14583;43.604;1.364;2023-02-01T05:36:33;8.15;;;4.07;;
26407;SDS011;14583;43.604;1.364;2023-02-01T05:38:59;6.70;;;3.60;;
26407;SDS011;14583;43.604;1.364;2023-02-01T05:41:25;7.15;;;4.03;;
26407;SDS011;14583;43.604;1.364;2023-02-01T05:43:51;7.25;;;4.43;;
26407;SDS011;14583;43.604;1.364;2023-02-01T05:46:16;6.85;;;4.25;;
26407;SDS011;14583;43.604;1.364;2023-02-01T05:48:42;7.72;;;4.80;;
26407;SDS011;14583;43.604;1.364;2023-02-01T05:51:09;5.50;;;4.03;;
26407;SDS011;14583;43.604;1.364;2023-02-01T05:53:35;5.55;;;3.55;;
26407;SDS011;14583;43.604;1.364;2023-02-01T05:56:01;5.70;;;4.18;;
26407;SDS011;14583;43.604;1.364;2023-02-01T05:58:27;6.88;;;3.78;;
26407;SDS011;14583;43.604;1.364;2023-02-01T06:00:52;10.50;;;4.75;;
26407;SDS011;14583;43.604;1.364;2023-02-01T06:03:18;9.07;;;4.88;;
26407;SDS011;14583;43.604;1.364;2023-02-01T06:05:44;8.15;;;4.50;;
26407;SDS011;14583;43.604;1.364;2023-02-01T06:08:11;9.63;;;5.05;;
26407;SDS011;14583;43.604;1.364;2023-02-01T06:10:37;8.43;;;4.43;;
26407;SDS011;14583;43.604;1.364;2023-02-01T06:13:03;11.38;;;4.55;;
26407;SDS011;14583;43.604;1.364;2023-02-01T06:15:29;6.95;;;4.53;;
26407;SDS011;14583;43.604;1.364;2023-02-01T06:17:54;9.35;;;5.38;;
26407;SDS011;14583;43.604;1.364;2023-02-01T06:20:20;7.95;;;5.03;;
26407;SDS011;14583;43.604;1.364;2023-02-01T06:22:46;13.38;;;5.32;;
26407;SDS011;14583;43.604;1.364;2023-02-01T06:25:12;17.13;;;5.85;;
26407;SDS011;14583;43.604;1.364;2023-02-01T06:27:38;8.45;;;5.15;;
26407;SDS011;14583;43.604;1.364;2023-02-01T06:30:04;12.32;;;5.40;;
26407;SDS011;14583;43.604;1.364;2023-02-01T06:32:31;10.23;;;5.10;;
26407;SDS011;14583;43.604;1.364;2023-02-01T06:34:57;12.15;;;5.35;;
26407;SDS011;14583;43.604;1.364;2023-02-01T06:37:24;10.02;;;5.05;;
26407;SDS011;14583;43.604;1.364;2023-02-01T06:39:51;9.27;;;5.75;;
26407;SDS011;14583;43.604;1.364;2023-02-01T06:42:16;13.27;;;6.10;;
26407;SDS011;14583;43.604;1.364;2023-02-01T06:44:42;12.48;;;6.20;;
26407;SDS011;14583;43.604;1.364;2023-02-01T06:47:08;9.85;;;5.90;;
26407;SDS011;14583;43.604;1.364;2023-02-01T06:49:33;18.00;;;6.80;;
26407;SDS011;14583;43.604;1.364;2023-02-01T06:51:59;15.55;;;7.70;;
26407;SDS011;14583;43.604;1.364;2023-02-01T06:54:25;11.38;;;6.55;;
26407;SDS011;14583;43.604;1.364;2023-02-01T06:56:52;15.00;;;7.80;;
26407;SDS011;14583;43.604;1.364;2023-02-01T06:59:18;14.95;;;8.18;;
26407;SDS011;14583;43.604;1.364;2023-02-01T07:01:43;15.48;;;7.20;;
26407;SDS011;14583;43.604;1.364;2023-02-01T07:04:10;11.50;;;7.00;;
26407;SDS011;14583;43.604;1.364;2023-02-01T07:06:37;12.10;;;6.80;;
26407;SDS011;14583;43.604;1.364;2023-02-01T07:09:03;12.98;;;6.93;;
26407;SDS011;14583;43.604;1.364;2023-02-01T07:11:28;12.90;;;7.22;;
26407;SDS011;14583;43.604;1.364;2023-02-01T07:13:55;11.43;;;6.75;;
26407;SDS011;14583;43.604;1.364;2023-02-01T07:16:21;13.43;;;6.88;;
26407;SDS011;14583;43.604;1.364;2023-02-01T07:18:47;13.48;;;6.30;;
26407;SDS011;14583;43.604;1.364;2023-02-01T07:21:14;9.40;;;6.57;;
26407;SDS011;14583;43.604;1.364;2023-02-01T07:23:40;9.20;;;6.40;;
26407;SDS011;14583;43.604;1.364;2023-02-01T07:26:06;12.15;;;7.28;;
26407;SDS011;14583;43.604;1.364;2023-02-01T07:28:38;10.98;;;6.38;;
26407;SDS011;14583;43.604;1.364;2023-02-01T07:31:08;10.13;;;6.90;;
26407;SDS011;14583;43.604;1.364;2023-02-01T07:33:40;12.63;;;6.45;;
26407;SDS011;14583;43.604;1.364;2023-02-01T07:36:06;11.95;;;6.35;;
26407;SDS011;14583;43.604;1.364;2023-02-01T07:38:35;11.63;;;7.70;;
26407;SDS011;14583;43.604;1.364;2023-02-01T07:41:04;12.30;;;7.03;;
26407;SDS011;14583;43.604;1.364;2023-02-01T07:43:31;12.02;;;7.10;;
26407;SDS011;14583;43.604;1.364;2023-02-01T07:45:58;9.77;;;6.10;;
26407;SDS011;14583;43.604;1.364;2023-02-01T07:48:24;13.05;;;6.78;;
26407;SDS011;14583;43.604;1.364;2023-02-01T07:50:58;9.48;;;6.30;;
26407;SDS011;14583;43.604;1.364;2023-02-01T07:53:25;9.77;;;6.47;;
26407;SDS011;14583;43.604;1.364;2023-02-01T07:55:50;11.75;;;7.30;;
26407;SDS011;14583;43.604;1.364;2023-02-01T07:58:16;9.75;;;7.45;;
26407;SDS011;14583;43.604;1.364;2023-02-01T08:00:42;12.13;;;6.75;;
26407;SDS011;14583;43.604;1.364;2023-02-01T08:03:26;13.10;;;7.32;;
26407;SDS011;14583;43.604;1.364;2023-02-01T08:05:55;9.07;;;6.32;;
26407;SDS011;14583;43.604;1.364;2023-02-01T08:08:21;10.65;;;7.28;;
26407;SDS011;14583;43.604;1.364;2023-02-01T08:10:47;17.70;;;6.90;;
26407;SDS011;14583;43.604;1.364;2023-02-01T08:13:13;14.63;;;7.10;;
26407;SDS011;14583;43.604;1.364;2023-02-01T08:15:38;12.70;;;5.95;;
26407;SDS011;14583;43.604;1.364;2023-02-01T08:18:04;18.17;;;6.78;;
26407;SDS011;14583;43.604;1.364;2023-02-01T08:20:30;9.88;;;5.45;;
26407;SDS011;14583;43.604;1.364;2023-02-01T08:22:56;13.60;;;5.97;;
26407;SDS011;14583;43.604;1.364;2023-02-01T08:25:22;12.40;;;5.50;;
26407;SDS011;14583;43.604;1.364;2023-02-01T08:27:49;11.88;;;6.05;;
26407;SDS011;14583;43.604;1.364;2023-02-01T08:30:15;15.38;;;5.60;;
26407;SDS011;14583;43.604;1.364;2023-02-01T08:32:41;12.65;;;5.93;;
26407;SDS011;14583;43.604;1.364;2023-02-01T08:35:08;14.32;;;5.65;;
26407;SDS011;14583;43.604;1.364;2023-02-01T08:37:34;15.98;;;5.90;;
26407;SDS011;14583;43.604;1.364;2023-02-01T08:40:00;10.95;;;4.93;;
26407;SDS011;14583;43.604;1.364;2023-02-01T08:42:26;14.55;;;5.53;;
26407;SDS011;14583;43.604;1.364;2023-02-01T08:45:10;13.75;;;4.63;;
26407;SDS011;14583;43.604;1.364;2023-02-01T08:47:36;13.73;;;5.25;;
26407;SDS011;14583;43.604;1.364;2023-02-01T08:50:02;13.52;;;4.65;;
26407;SDS011;14583;43.604;1.364;2023-02-01T08:52:27;12.45;;;5.05;;
26407;SDS011;14583;43.604;1.364;2023-02-01T08:54:53;14.27;;;5.13;;
26407;SDS011;14583;43.604;1.364;2023-02-01T08:57:19;15.07;;;4.65;;
26407;SDS011;14583;43.604;1.364;2023-02-01T08:59:44;14.05;;;4.80;;
26407;SDS011;14583;43.604;1.364;2023-02-01T09:02:14;13.10;;;4.82;;
26407;SDS011;14583;43.604;1.364;2023-02-01T09:04:41;12.40;;;4.85;;
26407;SDS011;14583;43.604;1.364;2023-02-01T09:07:07;13.45;;;4.45;;
26407;SDS011;14583;43.604;1.364;2023-02-01T09:09:33;13.00;;;4.60;;
26407;SDS011;14583;43.604;1.364;2023-02-01T09:11:59;14.48;;;4.90;;
26407;SDS011;14583;43.604;1.364;2023-02-01T09:14:25;14.35;;;4.43;;
26407;SDS011;14583;43.604;1.364;2023-02-01T09:16:51;14.90;;;4.07;;
26407;SDS011;14583;43.604;1.364;2023-02-01T09:19:16;13.40;;;3.97;;
26407;SDS011;14583;43.604;1.364;2023-02-01T09:21:42;9.48;;;4.00;;
26407;SDS011;14583;43.604;1.364;2023-02-01T09:24:09;22.17;;;4.63;;
26407;SDS011;14583;43.604;1.364;2023-02-01T09:26:36;11.73;;;4.03;;
26407;SDS011;14583;43.604;1.364;2023-02-01T09:29:02;16.35;;;4.05;;
26407;SDS011;14583;43.604;1.364;2023-02-01T09:31:28;13.48;;;3.22;;
26407;SDS011;14583;43.604;1.364;2023-02-01T09:33:55;15.60;;;3.33;;
26407;SDS011;14583;43.604;1.364;2023-02-01T09:36:21;12.43;;;2.97;;
26407;SDS011;14583;43.604;1.364;2023-02-01T09:38:48;14.77;;;3.35;;
26407;SDS011;14583;43.604;1.364;2023-02-01T09:44:11;15.38;;;3.60;;
26407;SDS011;14583;43.604;1.364;2023-02-01T09:46:47;18.63;;;3.53;;
26407;SDS011;14583;43.604;1.364;2023-02-01T09:49:15;16.95;;;3.75;;
26407;SDS011;14583;43.604;1.364;2023-02-01T09:51:46;14.00;;;3.45;;
26407;SDS011;14583;43.604;1.364;2023-02-01T09:54:18;15.55;;;3.53;;
26407;SDS011;14583;43.604;1.364;2023-02-01T09:56:48;15.70;;;3.30;;
26407;SDS011;14583;43.604;1.364;2023-02-01T10:02:23;19.73;;;3.70;;
26407;SDS011;14583;43.604;1.364;2023-02-01T10:04:52;15.57;;;3.47;;
26407;SDS011;14583;43.604;1.364;2023-02-01T10:07:34;19.88;;;4.00;;
26407;SDS011;14583;43.604;1.364;2023-02-01T10:10:31;21.83;;;3.65;;
26407;SDS011;14583;43.604;1.364;2023-02-01T10:15:43;20.67;;;3.83;;
26407;SDS011;14583;43.604;1.364;2023-02-01T10:27:11;13.52;;;3.97;;
26407;SDS011;14583;43.604;1.364;2023-02-01T10:29:47;14.40;;;3.65;;
26407;SDS011;14583;43.604;1.364;2023-02-01T10:32:23;18.13;;;3.42;;
26407;SDS011;14583;43.604;1.364;2023-02-01T10:34:57;16.45;;;3.63;;
26407;SDS011;14583;43.604;1.364;2023-02-01T10:37:28;13.02;;;2.95;;
26407;SDS011;14583;43.604;1.364;2023-02-01T10:39:57;17.52;;;3.33;;
26407;SDS011;14583;43.604;1.364;2023-02-01T10:42:26;17.75;;;3.28;;
26407;SDS011;14583;43.604;1.364;2023-02-01T10:44:54;11.88;;;2.95;;
26407;SDS011;14583;43.604;1.364;2023-02-01T10:47:23;13.88;;;3.33;;
26407;SDS011;14583;43.604;1.364;2023-02-01T10:52:22;17.42;;;3.30;;
26407;SDS011;14583;43.604;1.364;2023-02-01T10:54:48;9.38;;;2.92;;
26407;SDS011;14583;43.604;1.364;2023-02-01T10:57:22;9.88;;;3.35;;
26407;SDS011;14583;43.604;1.364;2023-02-01T10:59:50;12.98;;;3.13;;
26407;SDS011;14583;43.604;1.364;2023-02-01T11:05:03;13.63;;;3.65;;
26407;SDS011;14583;43.604;1.364;2023-02-01T11:07:31;6.88;;;2.75;;
26407;SDS011;14583;43.604;1.364;2023-02-01T11:09:57;13.23;;;3.03;;
26407;SDS011;14583;43.604;1.364;2023-02-01T11:12:33;11.23;;;2.78;;
26407;SDS011;14583;43.604;1.364;2023-02-01T11:17:43;9.57;;;3.13;;
26407;SDS011;14583;43.604;1.364;2023-02-01T11:20:18;17.73;;;3.80;;
26407;SDS011;14583;43.604;1.364;2023-02-01T11:22:47;11.40;;;2.88;;
26407;SDS011;14583;43.604;1.364;2023-02-01T11:25:14;9.35;;;2.92;;
26407;SDS011;14583;43.604;1.364;2023-02-01T11:27:41;11.45;;;3.17;;
26407;SDS011;14583;43.604;1.364;2023-02-01T11:30:07;11.45;;;3.40;;
26407;SDS011;14583;43.604;1.364;2023-02-01T11:32:39;10.30;;;3.38;;
26407;SDS011;14583;43.604;1.364;2023-02-01T11:35:05;8.90;;;3.47;;
26407;SDS011;14583;43.604;1.364;2023-02-01T11:37:36;10.07;;;3.70;;
26407;SDS011;14583;43.604;1.364;2023-02-01T11:40:22;12.70;;;3.42;;
26407;SDS011;14583;43.604;1.364;2023-02-01T11:42:54;8.75;;;3.70;;
26407;SDS011;14583;43.604;1.364;2023-02-01T11:45:28;8.13;;;3.53;;
26407;SDS011;14583;43.604;1.364;2023-02-01T11:47:58;10.57;;;3.28;;
26407;SDS011;14583;43.604;1.364;2023-02-01T11:50:31;12.48;;;2.92;;
26407;SDS011;14583;43.604;1.364;2023-02-01T12:01:07;8.18;;;3.35;;
26407;SDS011;14583;43.604;1.364;2023-02-01T12:11:48;5.95;;;2.72;;
26407;SDS011;14583;43.604;1.364;2023-02-01T12:30:56;6.95;;;3.55;;
26407;SDS011;14583;43.604;1.364;2023-02-01T12:34:03;7.65;;;3.97;;
26407;SDS011;14583;43.604;1.364;2023-02-01T12:41:53;6.63;;;3.72;;
26407;SDS011;14583;43.604;1.364;2023-02-01T12:49:47;8.93;;;3.53;;
26407;SDS011;14583;43.604;1.364;2023-02-01T12:52:20;5.88;;;3.50;;
26407;SDS011;14583;43.604;1.364;2023-02-01T12:55:02;6.53;;;3.80;;
26407;SDS011;14583;43.604;1.364;2023-02-01T12:57:32;6.80;;;3.10;;
26407;SDS011;14583;43.604;1.364;2023-02-01T13:00:07;6.45;;;2.97;;
26407;SDS011;14583;43.604;1.364;2023-02-01T13:03:01;6.93;;;2.83;;
26407;SDS011;14583;43.604;1.364;2023-02-01T13:09:20;5.00;;;2.50;;
26407;SDS011;14583;43.604;1.364;2023-02-01T13:11:42;5.05;;;2.83;;
26407;SDS011;14583;43.604;1.364;2023-02-01T13:17:02;5.57;;;2.70;;
26407;SDS011;14583;43.604;1.364;2023-02-01T13:22:12;4.53;;;2.47;;
26407;SDS011;14583;43.604;1.364;2023-02-01T13:24:50;4.18;;;2.30;;
26407;SDS011;14583;43.604;1.364;2023-02-01T13:27:38;6.68;;;1.90;;
26407;SDS011;14583;43.604;1.364;2023-02-01T13:43:49;7.95;;;3.30;;
26407;SDS011;14583;43.604;1.364;2023-02-01T13:46:18;7.07;;;3.22;;
26407;SDS011;14583;43.604;1.364;2023-02-01T13:51:12;4.13;;;2.00;;
26407;SDS011;14583;43.604;1.364;2023-02-01T13:53:43;9.60;;;3.03;;
26407;SDS011;14583;43.604;1.364;2023-02-01T13:56:13;5.18;;;2.35;;
26407;SDS011;14583;43.604;1.364;2023-02-01T13:58:42;6.38;;;2.50;;
26407;SDS011;14583;43.604;1.364;2023-02-01T14:03:51;3.88;;;2.40;;
26407;SDS011;14583;43.604;1.364;2023-02-01T14:19:28;10.07;;;3.28;;
26407;SDS011;14583;43.604;1.364;2023-02-01T14:24:49;6.35;;;2.97;;
26407;SDS011;14583;43.604;1.364;2023-02-01T14:27:22;11.02;;;3.33;;
26407;SDS011;14583;43.604;1.364;2023-02-01T14:29:58;5.85;;;3.28;;
26407;SDS011;14583;43.604;1.364;2023-02-01T14:32:38;4.78;;;3.05;;
26407;SDS011;14583;43.604;1.364;2023-02-01T14:35:07;6.50;;;3.17;;
26407;SDS011;14583;43.604;1.364;2023-02-01T14:37:44;7.30;;;2.90;;
26407;SDS011;14583;43.604;1.364;2023-02-01T14:47:54;4.80;;;2.92;;
26407;SDS011;14583;43.604;1.364;2023-02-01T14:53:04;6.68;;;3.20;;
26407;SDS011;14583;43.604;1.364;2023-02-01T14:58:32;4.35;;;2.78;;
26407;SDS011;14583;43.604;1.364;2023-02-01T15:01:16;5.10;;;3.05;;
26407;SDS011;14583;43.604;1.364;2023-02-01T15:06:27;7.35;;;2.35;;
26407;SDS011;14583;43.604;1.364;2023-02-01T15:08:58;5.82;;;2.67;;
26407;SDS011;14583;43.604;1.364;2023-02-01T15:11:27;6.90;;;2.53;;
26407;SDS011;14583;43.604;1.364;2023-02-01T15:13:53;4.07;;;2.40;;
26407;SDS011;14583;43.604;1.364;2023-02-01T15:16:22;9.02;;;4.28;;
26407;SDS011;14583;43.604;1.364;2023-02-01T15:18:49;5.47;;;3.60;;
26407;SDS011;14583;43.604;1.364;2023-02-01T15:21:17;5.85;;;4.28;;
26407;SDS011;14583;43.604;1.364;2023-02-01T15:23:45;5.47;;;4.03;;
26407;SDS011;14583;43.604;1.364;2023-02-01T15:26:34;6.45;;;2.80;;
26407;SDS011;14583;43.604;1.364;2023-02-01T15:28:59;6.72;;;3.28;;
26407;SDS011;14583;43.604;1.364;2023-02-01T15:31:32;8.13;;;3.53;;
26407;SDS011;14583;43.604;1.364;2023-02-01T15:34:00;6.60;;;3.05;;
26407;SDS011;14583;43.604;1.364;2023-02-01T15:36:26;5.00;;;3.30;;
26407;SDS011;14583;43.604;1.364;2023-02-01T15:41:38;6.78;;;3.25;;
26407;SDS011;14583;43.604;1.364;2023-02-01T15:44:05;4.80;;;3.22;;
26407;SDS011;14583;43.604;1.364;2023-02-01T15:46:44;6.97;;;2.55;;
26407;SDS011;14583;43.604;1.364;2023-02-01T15:49:31;4.00;;;2.38;;
26407;SDS011;14583;43.604;1.364;2023-02-01T15:52:02;6.13;;;3.17;;
26407;SDS011;14583;43.604;1.364;2023-02-01T15:54:30;7.32;;;3.00;;
26407;SDS011;14583;43.604;1.364;2023-02-01T15:57:24;5.53;;;2.88;;
26407;SDS011;14583;43.604;1.364;2023-02-01T15:59:56;5.28;;;2.95;;
26407;SDS011;14583;43.604;1.364;2023-02-01T16:02:37;6.03;;;2.97;;
26407;SDS011;14583;43.604;1.364;2023-02-01T16:05:29;3.67;;;2.50;;
26407;SDS011;14583;43.604;1.364;2023-02-01T16:08:14;3.33;;;2.78;;
26407;SDS011;14583;43.604;1.364;2023-02-01T16:10:45;4.47;;;2.50;;
26407;SDS011;14583;43.604;1.364;2023-02-01T16:13:12;7.88;;;2.20;;
26407;SDS011;14583;43.604;1.364;2023-02-01T16:15:39;4.00;;;2.15;;
26407;SDS011;14583;43.604;1.364;2023-02-01T16:18:05;5.00;;;2.22;;
26407;SDS011;14583;43.604;1.364;2023-02-01T16:20:33;4.20;;;2.20;;
26407;SDS011;14583;43.604;1.364;2023-02-01T16:23:00;5.63;;;2.15;;
26407;SDS011;14583;43.604;1.364;2023-02-01T16:25:29;3.35;;;2.22;;
26407;SDS011;14583;43.604;1.364;2023-02-01T16:27:55;3.25;;;2.28;;
26407;SDS011;14583;43.604;1.364;2023-02-01T16:30:20;3.05;;;1.92;;
26407;SDS011;14583;43.604;1.364;2023-02-01T16:32:57;3.67;;;2.10;;
26407;SDS011;14583;43.604;1.364;2023-02-01T16:37:50;4.35;;;1.70;;
26407;SDS011;14583;43.604;1.364;2023-02-01T16:40:16;3.17;;;1.83;;
26407;SDS011;14583;43.604;1.364;2023-02-01T16:42:45;3.30;;;1.90;;
26407;SDS011;14583;43.604;1.364;2023-02-01T16:45:12;5.30;;;2.20;;
26407;SDS011;14583;43.604;1.364;2023-02-01T16:47:46;5.40;;;3.13;;
26407;SDS011;14583;43.604;1.364;2023-02-01T16:50:20;6.70;;;2.50;;
26407;SDS011;14583;43.604;1.364;2023-02-01T16:52:47;4.43;;;3.20;;
26407;SDS011;14583;43.604;1.364;2023-02-01T16:55:14;5.18;;;2.90;;
26407;SDS011;14583;43.604;1.364;2023-02-01T16:57:41;3.65;;;2.50;;
26407;SDS011;14583;43.604;1.364;2023-02-01T17:00:08;5.38;;;2.40;;
26407;SDS011;14583;43.604;1.364;2023-02-01T17:02:34;3.70;;;2.10;;
26407;SDS011;14583;43.604;1.364;2023-02-01T17:05:00;4.35;;;2.30;;
26407;SDS011;14583;43.604;1.364;2023-02-01T17:07:26;3.00;;;2.03;;
26407;SDS011;14583;43.604;1.364;2023-02-01T17:09:52;2.90;;;2.05;;
26407;SDS011;14583;43.604;1.364;2023-02-01T17:12:21;2.35;;;1.80;;
26407;SDS011;14583;43.604;1.364;2023-02-01T17:14:54;3.72;;;1.85;;
26407;SDS011;14583;43.604;1.364;2023-02-01T17:17:21;48.97;;;27.35;;
26407;SDS011;14583;43.604;1.364;2023-02-01T17:19:50;27.80;;;17.48;;
26407;SDS011;14583;43.604;1.364;2023-02-01T17:22:18;4.60;;;2.90;;
26407;SDS011;14583;43.604;1.364;2023-02-01T17:24:45;4.15;;;2.50;;
26407;SDS011;14583;43.604;1.364;2023-02-01T17:27:11;3.58;;;2.25;;
26407;SDS011;14583;43.604;1.364;2023-02-01T17:29:36;4.72;;;2.03;;
26407;SDS011;14583;43.604;1.364;2023-02-01T17:32:02;4.63;;;2.25;;
26407;SDS011;14583;43.604;1.364;2023-02-01T17:34:29;4.72;;;2.40;;
26407;SDS011;14583;43.604;1.364;2023-02-01T17:36:55;7.07;;;2.67;;
26407;SDS011;14583;43.604;1.364;2023-02-01T17:39:21;5.25;;;2.63;;
26407;SDS011;14583;43.604;1.364;2023-02-01T17:42:08;18.33;;;9.25;;
26407;SDS011;14583;43.604;1.364;2023-02-01T17:44:35;26.45;;;12.75;;
26407;SDS011;14583;43.604;1.364;2023-02-01T17:47:01;29.65;;;16.00;;
26407;SDS011;14583;43.604;1.364;2023-02-01T17:49:27;28.15;;;16.45;;
26407;SDS011;14583;43.604;1.364;2023-02-01T17:51:53;32.22;;;17.35;;
26407;SDS011;14583;43.604;1.364;2023-02-01T17:54:19;26.30;;;14.18;;